PDT,Max TemperatureF,Mean TemperatureF,Min TemperatureF,Max Dew PointF,MeanDew PointF,Min DewpointF,Max Humidity, Mean Humidity, Min Humidity, Max Sea Level PressureIn, Mean Sea Level PressureIn, Min Sea Level PressureIn, Max VisibilityMiles, Mean VisibilityMiles, Min VisibilityMiles, Max Wind SpeedMPH, Mean Wind SpeedMPH, Max Gust SpeedMPH,PrecipitationIn, CloudCover, Events, WindDirDegrees
2013-3-1,64,55,46,50,48,45,100,80,60,30.49,30.43,30.33,10,10,10,12,4,28,0.00,7,,187
2013-3-2,55,50,45,49,46,41,100,89,77,30.33,30.25,30.22,10,9,5,14,4,16,0.02,8,,231
2013-3-3,52,43,34,41,33,30,92,68,44,30.33,30.28,30.22,10,10,10,21,10,23,T,4,,2
2013-3-4,55,42,28,41,34,27,96,75,54,30.21,30.08,29.93,10,9,6,12,4,14,0.00,4,,13
2013-3-5,47,41,34,44,41,34,100,93,86,29.91,29.79,29.62,10,8,4,14,4,16,0.50,7,Rain,163
2013-3-6,50,43,36,43,40,34,100,86,71,29.99,29.70,29.56,10,9,5,24,9,29,0.46,7,Rain,207
2013-3-7,56,42,28,40,33,27,100,72,43,30.06,30.03,29.99,10,8,0,13,5,16,0.00,3,Fog,206
2013-3-8,55,44,32,42,36,30,100,80,59,30.23,30.08,30.03,10,8,1,13,3,16,0.00,4,,33
2013-3-9,61,45,29,41,33,28,100,68,35,30.52,30.38,30.25,10,5,0,12,4,14,0.00,3,Fog,213
2013-3-10,63,47,31,48,40,30,92,67,42,30.52,30.46,30.41,10,10,10,8,4,10,0.00,6,,237
2013-3-11,64,55,45,51,48,45,93,75,56,30.43,30.35,30.27,10,10,10,12,3,16,0.00,7,,5
2013-3-12,62,52,42,50,46,41,100,82,64,30.25,30.22,30.17,10,7,0,10,4,13,0.00,6,Fog,184
2013-3-13,68,56,44,52,47,43,93,73,52,30.25,30.19,30.10,10,10,10,9,3,10,0.00,7,,231
2013-3-14,60,52,44,47,44,42,100,77,53,30.24,30.16,30.08,10,10,10,15,7,18,T,6,,224
2013-3-15,67,57,47,49,47,43,93,71,48,30.25,30.23,30.19,10,10,10,13,5,16,0.00,6,,235
2013-3-16,52,47,41,46,43,38,93,84,74,30.22,30.17,30.09,10,10,7,22,8,25,0.08,8,Rain,228
2013-3-17,51,42,32,37,35,32,100,78,56,30.35,30.30,30.23,10,10,10,14,5,18,0.00,5,,249
2013-3-18,56,43,30,38,34,28,100,75,50,30.31,30.25,30.13,10,8,1,18,6,21,0.00,4,Fog,1
2013-3-19,53,46,39,50,41,34,100,86,71,30.12,29.95,29.71,10,8,3,14,3,17,0.46,7,Rain,23
2013-3-20,53,43,33,50,43,34,96,81,66,30.25,29.90,29.64,10,9,3,23,13,36,0.39,7,Rain,231
2013-3-21,49,41,33,39,35,31,92,76,60,30.37,30.32,30.26,10,10,7,22,9,26,0.04,6,Rain,222
2013-3-22,49,41,32,35,33,30,100,78,56,30.41,30.38,30.35,10,10,10,20,4,24,T,6,,275
2013-3-23,50,40,29,36,32,28,100,75,50,30.40,30.35,30.27,10,8,0,12,3,15,0.00,6,Fog,357
2013-3-24,55,44,32,40,36,30,100,76,51,30.27,30.17,30.09,10,10,10,9,3,12,0.00,6,,353
2013-3-25,56,46,35,44,39,34,92,74,55,30.08,30.00,29.94,10,10,10,9,3,12,0.00,6,Rain,322
2013-3-26,56,51,45,45,43,41,92,79,66,30.04,30.00,29.97,10,8,1,8,4,9,0.05,7,Rain,193
2013-3-27,64,52,40,52,44,37,100,80,60,30.01,29.96,29.91,10,6,0,16,2,20,0.07,7,Fog-Rain,243
2013-3-28,64,55,46,51,49,46,100,80,60,30.16,30.06,30.01,10,10,6,13,2,14,0.03,7,Rain,332
2013-3-29,68,57,46,53,49,46,100,79,58,30.21,30.17,30.12,10,10,7,12,3,15,0.02,5,Rain,339
2013-3-30,72,56,40,57,47,39,100,77,53,30.17,30.09,29.95,10,6,0,14,5,23,0.00,2,Fog,3
2013-3-31,72,59,45,52,49,44,93,70,47,30.05,30.00,29.96,10,10,10,22,9,26,0.00,5,,223